Time;durP1;ratioP1;P1;durP2;ratioP2;P2;SDS_P1;SDS_P2;PMS_P1;PMS_P2;Temp;Humidity;BMP_temperature;BMP_pressure;BME280_temperature;BME280_humidity;BME280_pressure;Samples;Min_cycle;Max_cycle;Signal;HPM_P1;HPM_P2
2022/07/01 00:00:06;;;;;;;;;;;;;;;23.28;100.00;100178.16;3056433;19;1047;-48
2022/07/01 00:01:16;;;;;;;;;;;;;;;23.32;100.00;100184.91;3056851;19;964;-50
2022/07/01 00:02:20;;;;;;;;;;;;;;;23.36;100.00;100193.56;3056455;19;1052;-48
2022/07/01 00:03:22;;;;;;;;;;;;;;;23.39;100.00;100189.63;3056608;19;939;-48
2022/07/01 00:04:27;;;;;;;;;;;;;;;23.40;100.00;100185.88;3056412;19;1043;-48
2022/07/01 00:05:51;;;;;;;;;;;;;;;23.43;100.00;100190.94;3056559;19;1619;-48
2022/07/01 00:06:54;;;;;;;;;;;;;;;23.45;100.00;100191.63;3056040;19;969;-48
2022/07/01 00:07:58;;;;;;;;;;;;;;;23.45;100.00;100194.34;3056606;19;842;-48
2022/07/01 00:09:00;;;;;;;;;;;;;;;23.47;100.00;100195.00;3056393;19;1040;-48
2022/07/01 00:10:06;;;;;;;;;;;;;;;23.49;100.00;100199.25;3056929;19;948;-48
2022/07/01 00:11:08;;;;;;;;;;;;;;;23.49;100.00;100192.94;3056273;19;1000;-48
2022/07/01 00:12:12;;;;;;;;;;;;;;;23.49;100.00;100201.13;3056446;19;981;-48
2022/07/01 00:13:14;;;;;;;;;;;;;;;23.51;100.00;100196.38;3055576;19;1838;-48
2022/07/01 00:14:18;;;;;;;;;;;;;;;23.50;100.00;100195.53;3056454;19;1004;-49
2022/07/01 00:15:21;;;;;;;;;;;;;;;23.49;100.00;100195.66;3056319;19;997;-48
2022/07/01 00:16:26;;;;;;;;;;;;;;;23.50;100.00;100194.63;3055547;19;1047;-48
2022/07/01 00:17:28;;;;;;;;;;;;;;;23.49;100.00;100191.06;3055252;19;1020;-48
2022/07/01 00:18:33;;;;;;;;;;;;;;;23.49;100.00;100190.22;3056662;19;889;-48
2022/07/01 00:19:35;;;;;;;;;;;;;;;23.50;100.00;100187.34;3056250;19;936;-48
2022/07/01 00:20:39;;;;;;;;;;;;;;;23.44;100.00;100185.31;3056642;19;940;-48
2022/07/01 00:21:41;;;;;;;;;;;;;;;23.49;100.00;100188.34;3056012;19;951;-48
2022/07/01 00:22:45;;;;;;;;;;;;;;;23.48;100.00;100186.66;3056654;19;1048;-49
2022/07/01 00:23:47;;;;;;;;;;;;;;;23.49;100.00;100192.94;3056466;19;987;-49
2022/07/01 00:24:52;;;;;;;;;;;;;;;23.49;100.00;100196.50;3056645;19;925;-49
2022/07/01 00:25:54;;;;;;;;;;;;;;;23.47;100.00;100186.84;3056209;19;853;-48
2022/07/01 00:26:58;;;;;;;;;;;;;;;23.46;100.00;100196.88;3056463;19;993;-48
2022/07/01 00:28:01;;;;;;;;;;;;;;;23.46;100.00;100187.84;3056257;19;1359;-49
2022/07/01 00:29:05;;;;;;;;;;;;;;;23.46;100.00;100187.84;3056512;19;1019;-48
2022/07/01 00:30:07;;;;;;;;;;;;;;;23.46;100.00;100188.72;3056121;19;916;-49
2022/07/01 00:31:12;;;;;;;;;;;;;;;23.46;100.00;100193.31;3055936;19;981;-47
2022/07/01 00:32:14;;;;;;;;;;;;;;;23.45;100.00;100189.72;3056340;19;959;-48
2022/07/01 00:33:18;;;;;;;;;;;;;;;23.45;100.00;100192.47;3055727;19;1847;-47
2022/07/01 00:34:20;;;;;;;;;;;;;;;23.44;100.00;100187.19;3056227;19;971;-47
2022/07/01 00:35:25;;;;;;;;;;;;;;;23.45;100.00;100188.88;3056373;19;897;-48
2022/07/01 00:36:27;;;;;;;;;;;;;;;23.44;100.00;100189.91;3056053;19;1342;-48
2022/07/01 00:37:34;;;;;;;;;;;;;;;23.43;100.00;100188.22;3056167;19;870;-48
2022/07/01 00:38:35;;;;;;;;;;;;;;;23.42;100.00;100186.56;3056378;19;975;-48
2022/07/01 00:39:40;;;;;;;;;;;;;;;23.43;100.00;100196.38;3056508;19;904;-48
2022/07/01 00:40:42;;;;;;;;;;;;;;;23.42;100.00;100195.56;3056217;19;1335;-48
2022/07/01 00:41:46;;;;;;;;;;;;;;;23.41;100.00;100195.75;3056200;19;913;-48
2022/07/01 00:42:51;;;;;;;;;;;;;;;23.40;100.00;100196.78;3056188;19;846;-47
2022/07/01 00:43:57;;;;;;;;;;;;;;;23.39;100.00;100205.97;3056158;19;992;-48
2022/07/01 00:44:59;;;;;;;;;;;;;;;23.36;100.00;100201.75;3056402;19;885;-48
2022/07/01 00:46:03;;;;;;;;;;;;;;;23.32;100.00;100203.97;3056189;19;940;-48
2022/07/01 00:47:08;;;;;;;;;;;;;;;23.27;100.00;100213.75;3055549;19;949;-48
2022/07/01 00:48:12;;;;;;;;;;;;;;;23.17;100.00;100224.03;3055248;19;1133;-48
2022/07/01 00:49:17;;;;;;;;;;;;;;;23.11;100.00;100233.78;3056311;19;809;-48
2022/07/01 00:50:19;;;;;;;;;;;;;;;22.99;100.00;100243.38;3055732;19;1355;-47
2022/07/01 00:51:23;;;;;;;;;;;;;;;22.91;100.00;100241.56;3055438;19;1714;-48
2022/07/01 00:52:25;;;;;;;;;;;;;;;22.84;100.00;100250.63;3055068;19;874;-48
2022/07/01 00:53:33;;;;;;;;;;;;;;;22.77;100.00;100228.72;3055676;19;1845;-48
2022/07/01 00:54:38;;;;;;;;;;;;;;;22.79;100.00;100234.00;3055990;19;1172;-48
2022/07/01 00:55:41;;;;;;;;;;;;;;;22.77;100.00;100227.88;3056469;19;853;-48
2022/07/01 00:56:45;;;;;;;;;;;;;;;22.74;100.00;100226.31;3055957;19;996;-48
2022/07/01 00:57:47;;;;;;;;;;;;;;;22.70;100.00;100227.72;3056271;19;995;-48
2022/07/01 00:58:51;;;;;;;;;;;;;;;22.63;100.00;100243.91;3056091;19;1011;-48
2022/07/01 00:59:53;;;;;;;;;;;;;;;22.52;100.00;100252.47;3055978;19;953;-48
2022/07/01 01:00:58;;;;;;;;;;;;;;;22.50;100.00;100251.78;3054962;19;1059;-48
2022/07/01 01:02:01;;;;;;;;;;;;;;;22.30;100.00;100250.53;3055288;19;1247;-48
2022/07/01 01:03:05;;;;;;;;;;;;;;;22.17;100.00;100253.78;3055886;19;930;-48
2022/07/01 01:04:07;;;;;;;;;;;;;;;22.18;100.00;100249.22;3055034;19;1044;-47
2022/07/01 01:05:12;;;;;;;;;;;;;;;22.25;100.00;100250.19;3054956;19;854;-48
2022/07/01 01:06:15;;;;;;;;;;;;;;;22.29;100.00;100237.94;3056194;19;1332;-48
2022/07/01 01:07:19;;;;;;;;;;;;;;;22.28;100.00;100239.81;3058973;19;898;-48
2022/07/01 01:08:21;;;;;;;;;;;;;;;22.32;100.00;100234.03;3059180;19;973;-47
2022/07/01 01:09:25;;;;;;;;;;;;;;;22.31;100.00;100235.91;3058095;19;913;-48
2022/07/01 01:10:27;;;;;;;;;;;;;;;22.32;100.00;100240.31;3058394;19;960;-48
2022/07/01 01:11:32;;;;;;;;;;;;;;;22.33;100.00;100247.47;3058929;19;1021;-49
2022/07/01 01:12:34;;;;;;;;;;;;;;;22.31;100.00;100254.94;3059267;19;960;-48
2022/07/01 01:13:38;;;;;;;;;;;;;;;22.36;100.00;100257.13;3058361;19;1842;-48
2022/07/01 01:14:49;;;;;;;;;;;;;;;22.31;100.00;100263.09;3059296;19;874;-49
2022/07/01 01:15:51;;;;;;;;;;;;;;;22.33;100.00;100273.81;3058502;19;966;-48
2022/07/01 01:16:56;;;;;;;;;;;;;;;22.36;100.00;100257.97;3059031;19;870;-48
2022/07/01 01:17:58;;;;;;;;;;;;;;;22.43;100.00;100264.41;3059038;19;920;-47
2022/07/01 01:19:02;;;;;;;;;;;;;;;22.50;100.00;100259.94;3059116;19;840;-48
2022/07/01 01:20:04;;;;;;;;;;;;;;;22.54;100.00;100274.91;3058450;19;1097;-48
2022/07/01 01:21:09;;;;;;;;;;;;;;;22.57;100.00;100281.88;3059240;19;925;-48
2022/07/01 01:22:11;;;;;;;;;;;;;;;22.55;100.00;100283.91;3058544;19;819;-48
2022/07/01 01:23:16;;;;;;;;;;;;;;;22.53;100.00;100281.34;3058392;19;866;-48
2022/07/01 01:24:18;;;;;;;;;;;;;;;22.50;100.00;100281.72;3058021;19;968;-47
2022/07/01 01:25:22;;;;;;;;;;;;;;;22.51;100.00;100296.16;3058008;19;910;-47
2022/07/01 01:26:25;;;;;;;;;;;;;;;22.49;100.00;100296.31;3057767;19;973;-47
2022/07/01 01:27:29;;;;;;;;;;;;;;;22.48;100.00;100294.63;3058083;19;941;-48
2022/07/01 01:28:31;;;;;;;;;;;;;;;22.48;100.00;100288.34;3058302;19;1144;-48
2022/07/01 01:29:37;;;;;;;;;;;;;;;22.46;100.00;100280.34;3058785;19;989;-48
2022/07/01 01:30:39;;;;;;;;;;;;;;;22.45;100.00;100275.13;3058545;19;851;-48
2022/07/01 01:31:43;;;;;;;;;;;;;;;22.45;100.00;100270.53;3058563;19;957;-48
2022/07/01 01:32:45;;;;;;;;;;;;;;;22.44;100.00;100259.81;3059002;19;1012;-47
2022/07/01 01:33:49;;;;;;;;;;;;;;;22.40;100.00;100262.03;3058183;19;1818;-47
2022/07/01 01:34:51;;;;;;;;;;;;;;;22.40;100.00;100275.63;3058672;19;1029;-48
2022/07/01 01:35:56;;;;;;;;;;;;;;;22.39;100.00;100276.66;3058879;19;936;-48
2022/07/01 01:36:58;;;;;;;;;;;;;;;22.37;100.00;100275.97;3058768;19;979;-48
2022/07/01 01:38:02;;;;;;;;;;;;;;;22.27;100.00;100286.22;3058928;19;874;-48
2022/07/01 01:39:07;;;;;;;;;;;;;;;22.20;100.00;100283.34;3059053;19;879;-47
2022/07/01 01:40:13;;;;;;;;;;;;;;;22.18;100.00;100284.56;3058562;19;1051;-47
2022/07/01 01:41:15;;;;;;;;;;;;;;;22.13;100.00;100279.63;3058678;19;980;-48
2022/07/01 01:42:19;;;;;;;;;;;;;;;22.14;100.00;100264.16;3058541;19;929;-48
2022/07/01 01:43:22;;;;;;;;;;;;;;;22.12;100.00;100266.19;3058496;19;1101;-48
2022/07/01 01:44:27;;;;;;;;;;;;;;;22.08;100.00;100260.28;3058308;19;953;-48
2022/07/01 01:45:28;;;;;;;;;;;;;;;22.03;100.00;100251.78;3058587;19;1043;-47
2022/07/01 01:46:34;;;;;;;;;;;;;;;22.00;100.00;100257.56;3058547;19;912;-47
2022/07/01 01:47:37;;;;;;;;;;;;;;;21.99;100.00;100255.03;3058608;19;975;-48
2022/07/01 01:48:41;;;;;;;;;;;;;;;21.96;100.00;100252.66;3057367;19;1020;-48
2022/07/01 01:49:43;;;;;;;;;;;;;;;21.95;100.00;100264.53;3057771;19;970;-47
2022/07/01 01:50:48;;;;;;;;;;;;;;;21.92;100.00;100266.56;3058237;19;903;-49
2022/07/01 01:51:50;;;;;;;;;;;;;;;21.92;100.00;100266.56;3058712;19;1132;-48
2022/07/01 01:52:54;;;;;;;;;;;;;;;21.88;100.00;100275.22;3058471;19;995;-48
2022/07/01 01:53:56;;;;;;;;;;;;;;;21.83;100.00;100272.19;3058595;19;1834;-47
2022/07/01 01:55:01;;;;;;;;;;;;;;;21.80;100.00;100267.94;3058351;19;926;-48
2022/07/01 01:56:03;;;;;;;;;;;;;;;21.78;100.00;100272.69;3058585;19;861;-49
2022/07/01 01:57:08;;;;;;;;;;;;;;;21.78;100.00;100267.25;3058335;19;921;-48
2022/07/01 01:58:10;;;;;;;;;;;;;;;21.78;100.00;100269.13;3058304;19;973;-47
2022/07/01 01:59:14;;;;;;;;;;;;;;;21.76;100.00;100260.31;3058154;19;1687;-47
2022/07/01 02:00:17;;;;;;;;;;;;;;;21.72;100.00;100259.81;3058619;19;1038;-48
2022/07/01 02:01:21;;;;;;;;;;;;;;;21.67;100.00;100253.19;3058074;19;1013;-48
2022/07/01 02:02:23;;;;;;;;;;;;;;;21.66;100.00;100260.50;3058535;19;866;-48
2022/07/01 02:03:28;;;;;;;;;;;;;;;21.62;100.00;100259.13;3057752;19;1636;-48
2022/07/01 02:04:30;;;;;;;;;;;;;;;21.60;100.00;100258.47;3058417;19;1000;-48
2022/07/01 02:05:36;;;;;;;;;;;;;;;21.60;100.00;100266.63;3058105;19;1498;-48
2022/07/01 02:06:40;;;;;;;;;;;;;;;21.56;100.00;100254.41;3058309;19;949;-49
2022/07/01 02:07:45;;;;;;;;;;;;;;;21.52;100.00;100248.44;3058174;19;1032;-47
2022/07/01 02:08:48;;;;;;;;;;;;;;;21.51;100.00;100265.75;3058303;19;948;-47
2022/07/01 02:09:52;;;;;;;;;;;;;;;21.48;100.00;100259.84;3058174;19;937;-47
2022/07/01 02:10:54;;;;;;;;;;;;;;;21.47;100.00;100258.13;3058417;19;1020;-49
2022/07/01 02:12:04;;;;;;;;;;;;;;;21.41;100.00;100250.66;3058089;19;995;-48
2022/07/01 02:13:08;;;;;;;;;;;;;;;21.38;100.00;100249.13;3058410;19;928;-47
2022/07/01 02:14:10;;;;;;;;;;;;;;;21.36;100.00;100242.19;3058292;19;1850;-48
2022/07/01 02:15:14;;;;;;;;;;;;;;;21.29;100.00;100244.72;3058143;19;925;-48
2022/07/01 02:16:16;;;;;;;;;;;;;;;21.26;100.00;100250.47;3058002;19;955;-48
2022/07/01 02:17:21;;;;;;;;;;;;;;;21.28;100.00;100239.47;3058010;19;873;-48
2022/07/01 02:18:23;;;;;;;;;;;;;;;21.27;100.00;100254.03;3056950;19;971;-48
2022/07/01 02:19:29;;;;;;;;;;;;;;;21.26;100.00;100246.91;3058313;19;1004;-48
2022/07/01 02:20:31;;;;;;;;;;;;;;;21.23;100.00;100258.13;3057934;19;925;-48
2022/07/01 02:21:35;;;;;;;;;;;;;;;21.18;100.00;100262.19;3058360;19;1315;-48
2022/07/01 02:22:37;;;;;;;;;;;;;;;21.13;100.00;100253.66;3058041;19;869;-47
2022/07/01 02:23:42;;;;;;;;;;;;;;;21.09;100.00;100259.59;3058059;19;995;-48
2022/07/01 02:24:44;;;;;;;;;;;;;;;21.13;100.00;100248.22;3057683;19;1063;-48
2022/07/01 02:25:50;;;;;;;;;;;;;;;21.15;100.00;100251.63;3058172;19;925;-48
2022/07/01 02:26:51;;;;;;;;;;;;;;;21.17;100.00;100249.59;3057725;19;1635;-48
2022/07/01 02:27:57;;;;;;;;;;;;;;;21.18;100.00;100247.75;3058517;19;909;-48
2022/07/01 02:28:59;;;;;;;;;;;;;;;21.15;100.00;100246.19;3056810;19;1076;-48
2022/07/01 02:30:05;;;;;;;;;;;;;;;21.16;100.00;100237.03;3058270;19;923;-48
2022/07/01 02:31:07;;;;;;;;;;;;;;;21.14;100.00;100233.66;3057852;19;1669;-48
2022/07/01 02:32:12;;;;;;;;;;;;;;;21.13;100.00;100242.81;3057965;19;952;-48
2022/07/01 02:33:16;;;;;;;;;;;;;;;21.14;100.00;100233.66;3058015;19;948;-47
2022/07/01 02:34:18;;;;;;;;;;;;;;;21.11;100.00;100236.72;3057801;19;985;-47
2022/07/01 02:35:22;;;;;;;;;;;;;;;21.15;100.00;100235.34;3057351;19;1858;-48
2022/07/01 02:36:24;;;;;;;;;;;;;;;21.16;100.00;100242.47;3057939;19;925;-48
2022/07/01 02:37:29;;;;;;;;;;;;;;;21.19;100.00;100238.63;3058178;19;1261;-48
2022/07/01 02:38:33;;;;;;;;;;;;;;;21.23;100.00;100250.00;3057866;19;907;-48
2022/07/01 02:39:35;;;;;;;;;;;;;;;21.25;100.00;100239.81;3058162;19;889;-48
2022/07/01 02:40:40;;;;;;;;;;;;;;;21.26;100.00;100247.75;3057701;19;909;-48
2022/07/01 02:43:01;;;;;;;;;;;;;;;21.33;100.00;100250.66;3059658;19;1771;-48
2022/07/01 02:44:03;;;;;;;;;;;;;;;21.35;100.00;100248.63;3057675;19;934;-48
2022/07/01 02:45:08;;;;;;;;;;;;;;;21.42;100.00;100249.63;3057940;19;861;-48
2022/07/01 02:46:10;;;;;;;;;;;;;;;21.43;100.00;100249.47;3057601;19;1032;-48
2022/07/01 02:47:14;;;;;;;;;;;;;;;21.50;100.00;100246.91;3057785;19;1208;-48
2022/07/01 02:48:16;;;;;;;;;;;;;;;21.52;100.00;100258.47;3058094;19;877;-48
2022/07/01 02:49:20;;;;;;;;;;;;;;;21.57;100.00;100253.38;3057694;19;909;-48
2022/07/01 02:50:22;;;;;;;;;;;;;;;21.61;100.00;100246.59;3057979;19;1383;-49
2022/07/01 02:51:33;;;;;;;;;;;;;;;21.68;100.00;100261.16;3057626;19;940;-47
2022/07/01 02:52:36;;;;;;;;;;;;;;;21.76;100.00;100250.28;3057969;19;842;-48
2022/07/01 02:53:40;;;;;;;;;;;;;;;21.82;100.00;100256.91;3057067;19;985;-48
2022/07/01 02:54:42;;;;;;;;;;;;;;;21.88;100.00;100259.78;3057657;19;1076;-48
2022/07/01 02:55:46;;;;;;;;;;;;;;;21.98;100.00;100270.44;3056593;19;1830;-47
2022/07/01 02:56:48;;;;;;;;;;;;;;;22.10;100.00;100262.81;3057714;19;918;-48
2022/07/01 02:57:53;;;;;;;;;;;;;;;22.20;100.00;100264.31;3057562;19;956;-49
2022/07/01 02:58:54;;;;;;;;;;;;;;;22.32;100.00;100274.81;3057825;19;882;-47
2022/07/01 02:59:59;;;;;;;;;;;;;;;22.40;100.00;100275.63;3057471;19;945;-48
2022/07/01 03:01:04;;;;;;;;;;;;;;;22.52;100.00;100279.66;3057031;19;921;-49
2022/07/01 03:02:06;;;;;;;;;;;;;;;22.67;100.00;100282.50;3057463;19;976;-49
2022/07/01 03:03:10;;;;;;;;;;;;;;;22.75;100.00;100277.00;3057698;19;1032;-48
2022/07/01 03:04:12;;;;;;;;;;;;;;;22.83;100.00;100281.56;3057421;19;850;-48
2022/07/01 03:05:17;;;;;;;;;;;;;;;22.91;100.00;100289.72;3057480;19;1264;-48
2022/07/01 03:06:19;;;;;;;;;;;;;;;22.99;100.00;100292.38;3057505;19;1043;-48
2022/07/01 03:07:23;;;;;;;;;;;;;;;23.04;100.00;100283.69;3057180;19;973;-48
2022/07/01 03:08:25;;;;;;;;;;;;;;;23.07;100.00;100281.44;3057356;19;1024;-48
2022/07/01 03:09:29;;;;;;;;;;;;;;;23.19;100.00;100287.28;3057569;19;1400;-48
2022/07/01 03:10:34;;;;;;;;;;;;;;;23.34;100.00;100277.31;3057354;19;943;-47
2022/07/01 03:11:36;;;;;;;;;;;;;;;23.50;100.00;100284.53;3057532;19;976;-47
2022/07/01 03:12:40;;;;;;;;;;;;;;;23.62;100.00;100285.81;3056989;19;1023;-48
2022/07/01 03:13:42;;;;;;;;;;;;;;;23.74;100.00;100280.78;3057220;19;934;-49
2022/07/01 03:14:46;;;;;;;;;;;;;;;23.82;100.00;100287.00;3057182;19;1769;-48
2022/07/01 03:15:51;;;;;;;;;;;;;;;23.98;100.00;100294.16;3056541;19;1850;-47
2022/07/01 03:16:53;;;;;;;;;;;;;;;24.10;100.00;100294.56;3057424;19;948;-48
2022/07/01 03:17:57;;;;;;;;;;;;;;;24.24;100.00;100293.75;3057469;19;886;-48
2022/07/01 03:19:01;;;;;;;;;;;;;;;24.30;100.00;100298.44;3057364;19;929;-47
2022/07/01 03:20:06;;;;;;;;;;;;;;;24.38;100.00;100290.19;3057009;19;889;-48
2022/07/01 03:21:08;;;;;;;;;;;;;;;24.59;100.00;100308.53;3057704;19;858;-48
2022/07/01 03:22:12;;;;;;;;;;;;;;;24.66;100.00;100299.38;3057367;19;918;-48
2022/07/01 03:23:17;;;;;;;;;;;;;;;24.77;100.00;100307.06;3057172;19;1222;-47
2022/07/01 03:24:19;;;;;;;;;;;;;;;24.90;100.00;100305.53;3057037;19;958;-47
2022/07/01 03:25:23;;;;;;;;;;;;;;;25.05;100.00;100309.97;3057465;19;854;-48
2022/07/01 03:26:25;;;;;;;;;;;;;;;25.22;100.00;100307.84;3057114;19;921;-47
2022/07/01 03:27:29;;;;;;;;;;;;;;;25.35;100.00;100305.25;3057249;19;1001;-48
2022/07/01 03:28:33;;;;;;;;;;;;;;;25.47;100.00;100306.44;3056346;19;1134;-48
2022/07/01 03:29:38;;;;;;;;;;;;;;;25.60;100.00;100308.41;3055567;19;926;-48
2022/07/01 03:30:40;;;;;;;;;;;;;;;25.66;100.00;100309.56;3056477;19;1266;-49
2022/07/01 03:31:44;;;;;;;;;;;;;;;25.87;100.00;100314.16;3055884;19;808;-48
2022/07/01 03:32:49;;;;;;;;;;;;;;;26.07;100.00;100305.09;3056347;19;915;-48
2022/07/01 03:33:51;;;;;;;;;;;;;;;26.23;100.00;100311.28;3057003;19;1001;-49
2022/07/01 03:34:55;;;;;;;;;;;;;;;26.48;100.00;100310.63;3057047;19;1671;-48
2022/07/01 03:35:57;;;;;;;;;;;;;;;26.74;100.00;100306.34;3056714;19;1853;-48
2022/07/01 03:37:02;;;;;;;;;;;;;;;26.99;100.00;100313.00;3057053;19;1672;-48
2022/07/01 03:38:04;;;;;;;;;;;;;;;27.30;100.00;100312.44;3057069;19;912;-48
2022/07/01 03:39:08;;;;;;;;;;;;;;;27.52;100.00;100311.25;3056553;19;1022;-48
2022/07/01 03:40:10;;;;;;;;;;;;;;;27.74;100.00;100316.56;3057172;19;1709;-49
2022/07/01 03:41:14;;;;;;;;;;;;;;;27.93;100.00;100312.97;3057021;19;1159;-48
2022/07/01 03:42:17;;;;;;;;;;;;;;;28.13;100.00;100315.72;3057112;19;917;-48
2022/07/01 03:43:22;;;;;;;;;;;;;;;28.37;100.00;100314.25;3056609;19;899;-48
2022/07/01 03:44:24;;;;;;;;;;;;;;;28.62;100.00;100317.94;3056847;19;866;-48
2022/07/01 03:45:28;;;;;;;;;;;;;;;28.76;100.00;100324.25;3056575;19;1036;-48
2022/07/01 03:46:31;;;;;;;;;;;;;;;28.97;100.00;100316.59;3056901;19;873;-48
2022/07/01 03:47:36;;;;;;;;;;;;;;;29.21;100.00;100322.41;3056825;19;912;-49
2022/07/01 03:48:40;;;;;;;;;;;;;;;29.42;98.44;100330.34;3056851;19;1004;-48
2022/07/01 03:49:43;;;;;;;;;;;;;;;29.69;96.81;100328.25;3056770;19;901;-48
2022/07/01 03:50:47;;;;;;;;;;;;;;;29.94;95.44;100328.25;3057609;19;1958;-48
2022/07/01 03:51:49;;;;;;;;;;;;;;;30.19;93.60;100331.84;3057977;19;1839;-48
2022/07/01 03:54:29;;;;;;;;;;;;;;;30.44;92.39;100321.66;3057183;19;929;-48
2022/07/01 03:55:40;;;;;;;;;;;;;;;31.17;87.38;100328.25;3055876;19;2370;-48
2022/07/01 03:56:42;;;;;;;;;;;;;;;31.41;85.57;100330.03;3057239;19;888;-48
2022/07/01 03:57:47;;;;;;;;;;;;;;;31.58;83.91;100328.28;3056635;19;956;-48
2022/07/01 03:58:49;;;;;;;;;;;;;;;31.77;83.49;100329.91;3056549;19;866;-48
2022/07/01 03:59:53;;;;;;;;;;;;;;;31.91;81.51;100324.19;3056902;19;921;-48
2022/07/01 04:00:55;;;;;;;;;;;;;;;32.10;80.85;100328.53;3057888;19;1782;-49
2022/07/01 04:02:00;;;;;;;;;;;;;;;32.22;79.70;100329.41;3056530;19;957;-48
2022/07/01 04:03:02;;;;;;;;;;;;;;;32.39;79.10;100324.84;3056449;19;1392;-48
2022/07/01 04:04:07;;;;;;;;;;;;;;;32.59;78.63;100332.75;3057779;19;1493;-48
2022/07/01 04:05:09;;;;;;;;;;;;;;;32.81;77.49;100335.75;3056831;19;818;-48
2022/07/01 04:06:13;;;;;;;;;;;;;;;33.06;77.02;100339.06;3056282;19;1048;-48
2022/07/01 04:07:15;;;;;;;;;;;;;;;33.32;76.11;100336.81;3055937;19;903;-48
2022/07/01 04:08:19;;;;;;;;;;;;;;;33.56;75.20;100341.16;3055838;19;1705;-48
2022/07/01 04:09:21;;;;;;;;;;;;;;;33.77;73.58;100340.44;3057015;19;881;-48
2022/07/01 04:10:26;;;;;;;;;;;;;;;33.95;72.38;100337.44;3056159;19;1036;-48
2022/07/01 04:11:28;;;;;;;;;;;;;;;34.14;71.46;100346.34;3055826;19;910;-48
2022/07/01 04:12:32;;;;;;;;;;;;;;;34.35;69.92;100341.13;3055373;19;1154;-48
2022/07/01 04:13:37;;;;;;;;;;;;;;;34.52;68.74;100347.50;3056167;19;949;-49
2022/07/01 04:14:41;;;;;;;;;;;;;;;34.69;68.03;100343.56;3056706;19;888;-49
2022/07/01 04:15:43;;;;;;;;;;;;;;;34.82;67.55;100338.78;3056708;19;909;-48
2022/07/01 04:16:48;;;;;;;;;;;;;;;34.93;66.64;100335.88;3054801;19;1842;-48
2022/07/01 04:17:50;;;;;;;;;;;;;;;35.06;65.60;100342.13;3055693;19;961;-48
2022/07/01 04:18:54;;;;;;;;;;;;;;;35.09;65.52;100334.13;3056025;19;1448;-48
2022/07/01 04:19:56;;;;;;;;;;;;;;;35.27;65.55;100328.25;3056785;19;2343;-48
2022/07/01 04:23:35;;;;;;;;;;;;;;;35.75;63.58;100334.88;3057187;19;1746;-49
2022/07/01 04:24:37;;;;;;;;;;;;;;;35.85;62.91;100332.22;3056478;19;1463;-48
2022/07/01 04:25:42;;;;;;;;;;;;;;;35.98;62.58;100337.31;3055800;19;1383;-49
2022/07/01 04:26:43;;;;;;;;;;;;;;;36.09;62.67;100336.31;3056170;19;934;-48
2022/07/01 04:27:48;;;;;;;;;;;;;;;36.24;62.19;100331.97;3056021;19;1055;-48
2022/07/01 04:28:54;;;;;;;;;;;;;;;36.44;61.99;100326.56;3055813;19;1160;-50
2022/07/01 04:29:59;;;;;;;;;;;;;;;36.63;61.31;100327.78;3056425;19;874;-49
2022/07/01 04:31:00;;;;;;;;;;;;;;;36.87;61.49;100330.13;3056149;19;1040;-49
2022/07/01 04:32:05;;;;;;;;;;;;;;;37.02;60.20;100333.00;3056326;19;925;-51
2022/07/01 04:33:07;;;;;;;;;;;;;;;37.17;59.66;100335.03;3055960;19;1052;-49
2022/07/01 04:34:12;;;;;;;;;;;;;;;37.33;59.56;100333.94;3055449;19;1093;-49
2022/07/01 04:35:16;;;;;;;;;;;;;;;37.53;59.13;100334.00;3055461;19;960;-49
2022/07/01 04:36:18;;;;;;;;;;;;;;;37.78;58.24;100336.00;3056368;19;1858;-49
2022/07/01 04:37:23;;;;;;;;;;;;;;;38.00;57.67;100344.09;3056103;19;1681;-49
2022/07/01 04:38:24;;;;;;;;;;;;;;;38.19;56.56;100337.69;3056450;19;882;-48
2022/07/01 04:39:30;;;;;;;;;;;;;;;38.37;55.76;100338.22;3056435;19;945;-48
2022/07/01 04:40:32;;;;;;;;;;;;;;;38.49;55.23;100338.75;3055534;19;1036;-49
2022/07/01 04:42:53;;;;;;;;;;;;;;;38.54;54.53;100333.19;3056168;19;878;-48
2022/07/01 04:43:55;;;;;;;;;;;;;;;38.66;54.63;100336.50;3056083;19;849;-48
2022/07/01 04:44:59;;;;;;;;;;;;;;;38.71;54.16;100328.13;3056528;19;1036;-49
2022/07/01 04:46:01;;;;;;;;;;;;;;;38.79;54.39;100329.47;3055797;19;1008;-49
2022/07/01 04:47:06;;;;;;;;;;;;;;;38.91;54.40;100316.88;3056472;19;949;-48
2022/07/01 04:48:08;;;;;;;;;;;;;;;38.92;53.81;100321.31;3055942;19;1068;-49
2022/07/01 04:49:13;;;;;;;;;;;;;;;38.95;53.66;100324.66;3056449;19;1257;-48
2022/07/01 04:50:17;;;;;;;;;;;;;;;38.82;53.01;100314.97;3055835;19;1182;-49
2022/07/01 04:51:19;;;;;;;;;;;;;;;38.90;53.19;100319.94;3056349;19;865;-49
2022/07/01 04:52:23;;;;;;;;;;;;;;;38.84;53.83;100321.94;3055751;19;1640;-49
2022/07/01 04:53:25;;;;;;;;;;;;;;;38.89;53.75;100319.09;3056489;19;754;-49
2022/07/01 04:54:30;;;;;;;;;;;;;;;38.82;53.84;100323.34;3056703;19;1645;-49
2022/07/01 04:55:31;;;;;;;;;;;;;;;38.92;54.07;100324.13;3055821;19;1416;-49
2022/07/01 04:56:36;;;;;;;;;;;;;;;38.91;53.38;100322.44;3055193;19;1849;-49
2022/07/01 04:57:47;;;;;;;;;;;;;;;38.89;53.23;100321.88;3055803;19;1587;-49
2022/07/01 04:58:49;;;;;;;;;;;;;;;38.97;53.74;100326.09;3053645;19;1940;-49
2022/07/01 04:59:53;;;;;;;;;;;;;;;38.92;53.39;100314.91;3054557;19;1613;-49
2022/07/01 05:00:55;;;;;;;;;;;;;;;39.06;54.10;100326.31;3055729;19;1063;-48
2022/07/01 05:02:01;;;;;;;;;;;;;;;39.19;53.38;100317.31;3056146;19;1079;-48
2022/07/01 05:03:03;;;;;;;;;;;;;;;39.24;53.59;100329.31;3055982;19;845;-49
2022/07/01 05:04:07;;;;;;;;;;;;;;;39.01;53.27;100320.75;3055271;19;1715;-49
2022/07/01 05:05:12;;;;;;;;;;;;;;;39.18;52.94;100326.81;3055280;19;1431;-49
2022/07/01 05:06:14;;;;;;;;;;;;;;;39.29;53.08;100331.22;3055769;19;1561;-48
2022/07/01 05:07:32;;;;;;;;;;;;;;;39.30;53.08;100326.47;3055900;19;849;-49
2022/07/01 05:08:34;;;;;;;;;;;;;;;39.32;52.91;100325.06;3055717;19;1546;-49
2022/07/01 05:09:38;;;;;;;;;;;;;;;39.32;52.96;100322.28;3057454;19;1758;-49
2022/07/01 05:10:40;;;;;;;;;;;;;;;39.39;53.11;100322.78;3056776;19;1739;-49
2022/07/01 05:11:44;;;;;;;;;;;;;;;39.34;53.47;100320.03;3055836;19;964;-48
2022/07/01 05:12:46;;;;;;;;;;;;;;;39.35;53.19;100318.91;3054230;19;1605;-49
2022/07/01 05:13:51;;;;;;;;;;;;;;;39.18;53.02;100324.03;3057017;19;1571;-48
2022/07/01 05:14:55;;;;;;;;;;;;;;;39.16;53.47;100317.88;3056795;19;1981;-49
2022/07/01 05:15:57;;;;;;;;;;;;;;;39.15;54.18;100321.81;3057428;19;1657;-49
2022/07/01 05:17:01;;;;;;;;;;;;;;;39.27;54.15;100319.50;3056807;19;1949;-49
2022/07/01 05:21:58;;;;;;;;;;;;;;;36.57;61.63;100295.50;3055494;19;1267;-48
2022/07/01 05:23:02;;;;;;;;;;;;;;;35.84;63.77;100299.97;3055572;19;933;-49
2022/07/01 05:24:04;;;;;;;;;;;;;;;35.04;65.56;100295.22;3055965;19;992;-48
2022/07/01 05:25:09;;;;;;;;;;;;;;;34.65;68.13;100291.69;3055641;19;962;-48
2022/07/01 05:26:16;;;;;;;;;;;;;;;34.33;70.56;100295.13;3055796;19;1913;-48
2022/07/01 05:27:20;;;;;;;;;;;;;;;33.98;72.06;100291.78;3055335;19;846;-48
2022/07/01 05:28:22;;;;;;;;;;;;;;;33.65;74.57;100286.22;3056387;19;1427;-48
2022/07/01 05:29:26;;;;;;;;;;;;;;;33.21;75.07;100286.78;3057520;19;1853;-48
2022/07/01 05:30:28;;;;;;;;;;;;;;;32.97;78.17;100285.19;3055997;19;936;-48
2022/07/01 05:31:33;;;;;;;;;;;;;;;32.71;79.69;100277.47;3055645;19;1478;-48
2022/07/01 05:32:37;;;;;;;;;;;;;;;32.51;81.57;100286.97;3056873;19;1727;-48
2022/07/01 05:33:39;;;;;;;;;;;;;;;32.16;83.43;100275.09;3054980;19;901;-48
2022/07/01 05:34:44;;;;;;;;;;;;;;;31.94;85.89;100279.53;3055319;19;900;-49
2022/07/01 05:35:49;;;;;;;;;;;;;;;31.71;87.24;100278.44;3055069;19;1204;-48
2022/07/01 05:36:54;;;;;;;;;;;;;;;31.48;89.07;100275.63;3055470;19;885;-49
2022/07/01 05:37:56;;;;;;;;;;;;;;;31.23;90.11;100273.03;3054081;19;1857;-48
2022/07/01 05:39:00;;;;;;;;;;;;;;;31.17;91.50;100275.88;3055276;19;961;-48
2022/07/01 05:40:03;;;;;;;;;;;;;;;31.00;93.48;100267.38;3054933;19;945;-48
2022/07/01 05:41:08;;;;;;;;;;;;;;;30.99;94.47;100277.56;3055118;19;898;-48